createdAt,value
2019-03-03T00:01:54.035Z,97926.88
2019-03-03T00:04:24.313Z,97905.01
2019-03-03T00:06:54.593Z,97899.27
2019-03-03T00:09:24.916Z,97904.16
2019-03-03T00:11:55.252Z,97896.02
2019-03-03T00:14:25.537Z,97895.94
2019-03-03T00:16:55.931Z,97881.36
2019-03-03T00:19:26.303Z,97876.78
2019-03-03T00:21:56.630Z,97858.09
2019-03-03T00:24:29.976Z,97861.80
2019-03-03T00:27:00.300Z,97864.67
2019-03-03T00:29:30.637Z,97867.41
2019-03-03T00:32:00.998Z,97866.13
2019-03-03T00:34:31.429Z,97865.53
2019-03-03T00:37:20.905Z,97870.62
2019-03-03T00:39:59.952Z,97871.13
2019-03-03T00:42:52.398Z,97875.11
2019-03-03T00:45:57.276Z,97878.62
2019-03-03T00:48:49.011Z,97877.59
2019-03-03T00:51:40.970Z,97872.41
2019-03-03T00:54:39.193Z,97868.48
2019-03-03T00:57:25.424Z,97868.18
2019-03-03T01:00:09.103Z,97855.56
2019-03-03T01:02:47.227Z,97863.39
2019-03-03T01:05:35.603Z,97866.77
2019-03-03T01:08:43.554Z,97862.45
2019-03-03T01:11:48.375Z,97862.11
2019-03-03T01:14:40.326Z,97863.66
2019-03-03T01:17:17.213Z,97869.26
2019-03-03T01:20:07.948Z,97865.84
2019-03-03T01:23:15.653Z,97873.53
2019-03-03T01:25:45.855Z,97869.81
2019-03-03T01:28:16.177Z,97874.91
2019-03-03T01:30:46.647Z,97872.89
2019-03-03T01:33:16.875Z,97882.23
2019-03-03T01:35:47.216Z,97881.93
2019-03-03T01:38:17.361Z,97883.97
2019-03-03T01:40:47.621Z,97880.84
2019-03-03T01:43:17.868Z,97879.79
2019-03-03T01:45:48.130Z,97875.89
2019-03-03T01:48:18.450Z,97870.70
2019-03-03T01:50:48.821Z,97869.48
2019-03-03T01:53:18.983Z,97872.42
2019-03-03T01:55:49.203Z,97872.94
2019-03-03T01:58:19.378Z,97873.23
2019-03-03T02:00:49.860Z,97872.64
2019-03-03T02:03:20.213Z,97867.93
2019-03-03T02:05:50.494Z,97859.84
2019-03-03T02:08:20.786Z,97857.19
2019-03-03T02:10:51.185Z,97848.59
2019-03-03T02:13:21.425Z,97846.88
2019-03-03T02:15:51.918Z,97832.76
2019-03-03T02:18:22.109Z,97834.18
2019-03-03T02:20:52.459Z,97832.93
2019-03-03T02:23:22.709Z,97824.80
2019-03-03T02:25:53.311Z,97819.94
2019-03-03T02:28:23.618Z,97816.55
2019-03-03T02:30:54.012Z,97817.75
2019-03-03T02:33:24.451Z,97817.45
2019-03-03T02:35:54.999Z,97812.45
2019-03-03T02:38:25.187Z,97816.77
2019-03-03T02:40:55.571Z,97810.60
2019-03-03T02:43:25.808Z,97816.89
2019-03-03T02:45:56.174Z,97809.97
2019-03-03T02:48:26.379Z,97811.17
2019-03-03T02:50:56.612Z,97805.39
2019-03-03T02:53:26.744Z,97797.34
2019-03-03T02:55:56.992Z,97793.04
2019-03-03T02:58:27.235Z,97791.03
2019-03-03T03:01:04.328Z,97785.08
2019-03-03T03:03:34.551Z,97781.44
2019-03-03T03:06:38.967Z,97771.73
2019-03-03T03:09:28.744Z,97770.84
2019-03-03T03:12:17.860Z,97764.00
2019-03-03T03:15:01.786Z,97764.98
2019-03-03T03:17:56.828Z,97765.59
2019-03-03T03:21:01.152Z,97772.51
2019-03-03T03:23:53.096Z,97778.72
2019-03-03T03:26:48.450Z,97775.98
2019-03-03T03:29:36.749Z,97774.95
2019-03-03T03:32:21.492Z,97778.92
2019-03-03T03:35:00.037Z,97773.63
2019-03-03T03:37:45.069Z,97765.93
2019-03-03T03:40:29.121Z,97774.81
2019-03-03T03:45:43.361Z,97770.75
2019-03-03T03:48:44.534Z,97768.61
2019-03-03T03:51:42.886Z,97764.98
2019-03-03T03:54:30.818Z,97759.12
2019-03-03T03:57:11.273Z,97751.25
2019-03-03T04:00:00.476Z,97736.45
2019-03-03T04:03:01.850Z,97735.29
2019-03-03T04:05:52.127Z,97742.61
2019-03-03T04:08:30.803Z,97738.45
2019-03-03T04:11:23.592Z,97741.12
2019-03-03T04:14:18.167Z,97740.27
2019-03-03T04:16:55.781Z,97742.47
2019-03-03T04:19:31.105Z,97734.31
2019-03-03T04:22:23.989Z,97736.95
2019-03-03T04:25:14.365Z,97730.55
2019-03-03T04:28:03.557Z,97730.80
2019-03-03T04:30:46.960Z,97739.61
2019-03-03T04:33:28.077Z,97740.98
2019-03-03T04:36:14.009Z,97746.69
2019-03-03T04:39:06.230Z,97744.48
2019-03-03T04:41:59.803Z,97747.05
2019-03-03T04:44:41.925Z,97750.37
2019-03-03T04:47:29.836Z,97740.52
2019-03-03T04:50:20.265Z,97737.94
2019-03-03T04:53:07.248Z,97737.59
2019-03-03T04:55:46.929Z,97733.48
2019-03-03T04:58:24.493Z,97727.83
2019-03-03T05:01:11.575Z,97729.30
2019-03-03T05:03:59.404Z,97733.48
2019-03-03T05:06:34.415Z,97733.27
2019-03-03T05:09:26.262Z,97733.06
2019-03-03T05:12:37.386Z,97736.13
2019-03-03T05:15:34.568Z,97751.44
2019-03-03T05:18:23.758Z,97747.77
2019-03-03T05:20:54.192Z,97741.82
2019-03-03T05:23:24.422Z,97742.03
2019-03-03T05:25:54.611Z,97746.96
2019-03-03T05:28:24.891Z,97745.84
2019-03-03T05:30:55.177Z,97737.95
2019-03-03T05:33:25.499Z,97729.76
2019-03-03T05:35:55.842Z,97731.39
2019-03-03T05:38:26.148Z,97725.14
2019-03-03T05:40:56.293Z,97727.63
2019-03-03T05:43:26.515Z,97729.31
2019-03-03T05:45:56.883Z,97732.26
2019-03-03T05:48:27.209Z,97729.47
2019-03-03T05:50:57.635Z,97720.56
2019-03-03T05:53:27.816Z,97713.94
2019-03-03T05:55:58.018Z,97710.92
2019-03-03T05:58:28.301Z,97707.70
2019-03-03T06:00:58.674Z,97717.92
2019-03-03T06:03:28.868Z,97725.48
2019-03-03T06:05:59.184Z,97722.43
2019-03-03T06:08:29.318Z,97720.08
2019-03-03T06:10:59.567Z,97719.41
2019-03-03T06:13:29.956Z,97717.76
2019-03-03T06:16:00.139Z,97719.08
2019-03-03T06:18:30.288Z,97710.33
2019-03-03T06:21:00.571Z,97703.97
2019-03-03T06:23:30.802Z,97706.32
2019-03-03T06:26:01.063Z,97706.02
2019-03-03T06:28:31.346Z,97697.61
2019-03-03T06:31:01.546Z,97704.71
2019-03-03T06:33:31.706Z,97703.73
2019-03-03T06:36:01.900Z,97705.19
2019-03-03T06:38:32.092Z,97704.11
2019-03-03T06:41:02.426Z,97693.85
2019-03-03T06:43:32.907Z,97689.20
2019-03-03T06:46:03.128Z,97684.28
2019-03-03T06:48:33.511Z,97688.94
2019-03-03T06:51:03.978Z,97684.70
2019-03-03T06:53:34.309Z,97675.30
2019-03-03T06:56:04.683Z,97685.41
2019-03-03T06:58:34.899Z,97674.43
2019-03-03T07:01:05.483Z,97679.05
2019-03-03T07:03:35.933Z,97674.67
2019-03-03T07:06:09.248Z,97684.78
2019-03-03T07:08:39.569Z,97686.33
2019-03-03T07:11:10.149Z,97687.73
2019-03-03T07:13:40.541Z,97681.09
2019-03-03T07:16:11.854Z,97690.45
2019-03-03T07:18:42.190Z,97691.47
2019-03-03T07:21:12.497Z,97698.91
2019-03-03T07:23:42.810Z,97697.69
2019-03-03T07:26:13.019Z,97704.84
2019-03-03T07:28:43.324Z,97695.45
2019-03-03T07:31:13.679Z,97696.88
2019-03-03T07:33:51.129Z,97696.24
2019-03-03T07:36:21.385Z,97700.66
2019-03-03T07:38:51.755Z,97701.56
2019-03-03T07:41:21.913Z,97703.44
2019-03-03T07:43:52.995Z,97705.34
2019-03-03T07:46:23.294Z,97710.66
2019-03-03T07:48:53.715Z,97709.88
2019-03-03T07:51:23.934Z,97707.13
2019-03-03T07:53:55.375Z,97710.89
2019-03-03T07:56:25.710Z,97721.09
2019-03-03T07:58:56.103Z,97715.19
2019-03-03T08:01:26.443Z,97719.58
2019-03-03T08:03:56.643Z,97714.27
2019-03-03T08:06:26.896Z,97719.64
2019-03-03T08:08:57.145Z,97717.73
2019-03-03T08:11:27.372Z,97716.41
2019-03-03T08:13:57.763Z,97716.50
2019-03-03T08:16:28.075Z,97717.22
2019-03-03T08:18:58.389Z,97711.88
2019-03-03T08:21:28.781Z,97722.54
2019-03-03T08:23:58.991Z,97717.52
2019-03-03T08:26:32.055Z,97722.55
2019-03-03T08:29:02.490Z,97721.20
2019-03-03T08:31:32.795Z,97720.37
2019-03-03T08:34:03.131Z,97724.19
2019-03-03T08:36:33.407Z,97712.08
2019-03-03T08:39:04.363Z,97724.80
2019-03-03T08:41:36.831Z,97725.11
2019-03-03T08:44:11.126Z,97726.00
2019-03-03T08:47:06.320Z,97721.61
2019-03-03T08:49:44.601Z,97726.41
2019-03-03T08:52:20.424Z,97725.69
2019-03-03T08:55:06.246Z,97728.55
2019-03-03T08:57:55.555Z,97725.34
2019-03-03T09:00:35.602Z,97716.84
2019-03-03T09:03:23.934Z,97714.59
2019-03-03T09:06:02.582Z,97727.09
2019-03-03T09:08:39.943Z,97730.06
2019-03-03T09:11:22.395Z,97721.72
2019-03-03T09:14:27.005Z,97728.09
2019-03-03T09:17:08.030Z,97737.69
2019-03-03T09:19:47.979Z,97736.30
2019-03-03T09:22:43.437Z,97724.30
2019-03-03T09:25:44.911Z,97718.82
2019-03-03T09:28:49.414Z,97721.93
2019-03-03T09:31:44.464Z,97719.82
2019-03-03T09:34:33.616Z,97727.71
2019-03-03T09:37:34.902Z,97727.13
2019-03-03T09:40:21.716Z,97731.74
2019-03-03T09:43:11.387Z,97730.64
2019-03-03T09:45:53.537Z,97737.19
2019-03-03T09:48:45.618Z,97736.83
2019-03-03T09:51:31.889Z,97740.34
2019-03-03T09:54:15.452Z,97739.33
2019-03-03T09:56:57.479Z,97746.36
2019-03-03T09:59:55.731Z,97753.11
2019-03-03T10:02:53.977Z,97752.86
2019-03-03T10:05:46.296Z,97752.03
2019-03-03T10:08:34.162Z,97737.98
2019-03-03T10:11:10.246Z,97740.48
2019-03-03T10:13:46.803Z,97735.75
2019-03-03T10:16:38.442Z,97740.45
2019-03-03T10:19:30.851Z,97736.87
2019-03-03T10:22:10.757Z,97736.34
2019-03-03T10:24:49.190Z,97736.56
2019-03-03T10:27:38.483Z,97746.98
2019-03-03T10:30:20.407Z,97740.75
2019-03-03T10:33:16.068Z,97731.19
2019-03-03T10:36:17.548Z,97740.52
2019-03-03T10:39:25.188Z,97730.69
2019-03-03T10:42:13.325Z,97731.77
2019-03-03T10:45:01.551Z,97737.66
2019-03-03T10:47:47.491Z,97730.92
2019-03-03T10:50:35.425Z,97728.83
2019-03-03T10:53:17.762Z,97727.67
2019-03-03T10:56:13.385Z,97729.79
2019-03-03T10:58:54.240Z,97722.16
2019-03-03T11:01:43.437Z,97714.23
2019-03-03T11:04:23.813Z,97714.45
2019-03-03T11:07:19.081Z,97709.22
2019-03-03T11:10:18.598Z,97709.83
2019-03-03T11:13:16.452Z,97714.91
2019-03-03T11:16:20.688Z,97710.38
2019-03-03T11:19:03.997Z,97713.19
2019-03-03T11:22:02.641Z,97708.76
2019-03-03T11:24:54.750Z,97705.38
2019-03-03T11:27:35.898Z,97700.86
2019-03-03T11:30:20.912Z,97686.89
2019-03-03T11:33:28.883Z,97685.42
2019-03-03T11:36:17.204Z,97687.77
2019-03-03T11:38:59.092Z,97668.27
2019-03-03T11:41:47.605Z,97666.81
2019-03-03T11:44:25.562Z,97664.09
2019-03-03T11:47:06.788Z,97652.45
2019-03-03T11:49:56.083Z,97634.55
2019-03-03T11:52:49.861Z,97640.84
2019-03-03T11:55:26.648Z,97634.83
2019-03-03T11:58:18.893Z,97631.58
2019-03-03T12:01:14.229Z,97630.78
2019-03-03T12:04:03.983Z,97635.95
2019-03-03T12:06:52.167Z,97634.02
2019-03-03T12:09:33.638Z,97621.50
2019-03-03T12:12:22.802Z,97629.17
2019-03-03T12:15:15.254Z,97628.66
2019-03-03T12:18:03.605Z,97618.05
2019-03-03T12:20:43.533Z,97620.04
2019-03-03T12:23:27.674Z,97606.46
2019-03-03T12:26:26.229Z,97608.08
2019-03-03T12:29:14.263Z,97606.54
2019-03-03T12:32:21.847Z,97594.36
2019-03-03T12:35:09.883Z,97593.36
2019-03-03T12:38:05.333Z,97585.09
2019-03-03T12:40:53.188Z,97577.63
2019-03-03T12:43:42.392Z,97575.63
2019-03-03T12:46:37.716Z,97571.63
2019-03-03T12:49:16.705Z,97567.10
2019-03-03T12:52:02.656Z,97560.99
2019-03-03T12:54:51.817Z,97562.33
2019-03-03T12:57:41.964Z,97560.98
2019-03-03T13:00:40.709Z,97554.27
2019-03-03T13:03:48.773Z,97544.41
2019-03-03T13:06:53.181Z,97551.06
2019-03-03T13:09:48.136Z,97527.81
2019-03-03T13:12:26.595Z,97532.07
2019-03-03T13:15:13.311Z,97523.52
2019-03-03T13:18:06.340Z,97524.31
2019-03-03T13:21:10.882Z,97524.81
2019-03-03T13:23:58.600Z,97510.93
2019-03-03T13:26:38.128Z,97510.38
2019-03-03T13:29:28.366Z,97499.73
2019-03-03T13:32:17.577Z,97506.66
2019-03-03T13:35:00.297Z,97505.31
2019-03-03T13:37:48.435Z,97496.48
2019-03-03T13:40:35.290Z,97489.59
2019-03-03T13:43:06.670Z,97492.54
2019-03-03T13:45:37.371Z,97488.27
2019-03-03T13:48:08.334Z,97481.33
2019-03-03T13:50:39.106Z,97480.51
2019-03-03T13:53:10.264Z,97475.16
2019-03-03T13:55:41.061Z,97477.30
2019-03-03T13:58:13.245Z,97481.00
2019-03-03T14:00:43.633Z,97470.35
2019-03-03T14:03:14.067Z,97468.73
2019-03-03T14:05:44.759Z,97466.33
2019-03-03T14:08:15.148Z,97456.20
2019-03-03T14:10:45.533Z,97466.62
2019-03-03T14:13:15.888Z,97462.37
2019-03-03T14:15:46.187Z,97459.17
2019-03-03T14:18:16.647Z,97451.94
2019-03-03T14:20:47.009Z,97458.89
2019-03-03T14:23:17.313Z,97447.44
2019-03-03T14:25:47.642Z,97445.21
2019-03-03T14:28:18.113Z,97422.03
2019-03-03T14:30:48.453Z,97419.06
2019-03-03T14:33:18.794Z,97420.38
2019-03-03T14:35:49.028Z,97421.18
2019-03-03T14:38:19.316Z,97415.87
2019-03-03T14:40:49.629Z,97409.75
2019-03-03T14:43:20.037Z,97399.23
2019-03-03T14:45:50.311Z,97392.52
2019-03-03T14:48:20.449Z,97392.27
2019-03-03T14:50:50.687Z,97393.40
2019-03-03T14:53:20.984Z,97397.39
2019-03-03T14:55:51.296Z,97401.67
2019-03-03T14:58:21.689Z,97397.38
2019-03-03T15:00:53.513Z,97393.14
2019-03-03T15:03:23.731Z,97390.68
2019-03-03T15:05:54.163Z,97388.63
2019-03-03T15:08:24.578Z,97394.45
2019-03-03T15:10:54.980Z,97391.55
2019-03-03T15:13:25.275Z,97399.85
2019-03-03T15:15:55.717Z,97392.92
2019-03-03T15:18:26.034Z,97386.77
2019-03-03T15:20:56.366Z,97377.17
2019-03-03T15:23:26.672Z,97377.98
2019-03-03T15:25:56.937Z,97361.67
2019-03-03T15:28:27.218Z,97372.11
2019-03-03T15:30:57.542Z,97360.89
2019-03-03T15:33:27.964Z,97347.84
2019-03-03T15:35:58.264Z,97348.09
2019-03-03T15:38:28.669Z,97350.48
2019-03-03T15:40:59.013Z,97345.16
2019-03-03T15:43:29.302Z,97347.83
2019-03-03T15:45:59.877Z,97347.55
2019-03-03T15:48:30.372Z,97351.84
2019-03-03T15:51:00.733Z,97349.17
2019-03-03T15:53:31.116Z,97352.61
2019-03-03T15:56:01.540Z,97341.70
2019-03-03T15:58:31.929Z,97344.38
2019-03-03T16:01:02.332Z,97352.89
2019-03-03T16:03:32.579Z,97341.67
2019-03-03T16:06:03.946Z,97337.70
2019-03-03T16:08:34.411Z,97331.01
2019-03-03T16:11:04.897Z,97339.82
2019-03-03T16:13:35.445Z,97340.60
2019-03-03T16:16:06.482Z,97322.98
2019-03-03T16:18:36.685Z,97321.38
2019-03-03T16:21:07.011Z,97316.05
2019-03-03T16:23:37.145Z,97297.92
2019-03-03T16:26:07.384Z,97318.16
2019-03-03T16:28:37.615Z,97306.97
2019-03-03T16:31:08.071Z,97303.72
2019-03-03T16:33:38.491Z,97285.58
2019-03-03T16:36:08.899Z,97282.09
2019-03-03T16:38:39.244Z,97276.02
2019-03-03T16:41:09.467Z,97261.06
2019-03-03T16:43:39.823Z,97264.78
2019-03-03T16:46:10.271Z,97267.17
2019-03-03T16:48:40.660Z,97267.17
2019-03-03T16:51:11.069Z,97277.05
2019-03-03T16:53:41.322Z,97266.90
2019-03-03T16:56:11.686Z,97268.51
2019-03-03T16:58:41.939Z,97262.10
2019-03-03T17:01:12.202Z,97261.02
2019-03-03T17:03:42.564Z,97263.17
2019-03-03T17:06:12.768Z,97258.63
2019-03-03T17:08:43.132Z,97263.67
2019-03-03T17:11:13.377Z,97258.09
2019-03-03T17:13:43.693Z,97258.35
2019-03-03T17:16:13.755Z,97257.81
2019-03-03T17:18:43.973Z,97260.17
2019-03-03T17:21:14.240Z,97250.07
2019-03-03T17:23:44.564Z,97239.91
2019-03-03T17:26:16.699Z,97242.59
2019-03-03T17:28:47.236Z,97242.80
2019-03-03T17:31:17.636Z,97245.45
2019-03-03T17:33:47.954Z,97256.65
2019-03-03T17:36:18.348Z,97266.47
2019-03-03T17:38:48.611Z,97262.72
2019-03-03T17:41:19.126Z,97262.70
2019-03-03T17:43:49.453Z,97263.19
2019-03-03T17:46:20.844Z,97264.73
2019-03-03T17:48:51.165Z,97265.23
2019-03-03T17:51:21.409Z,97276.22
2019-03-03T17:53:51.679Z,97272.51
2019-03-03T17:56:21.848Z,97279.20
2019-03-03T17:58:52.330Z,97287.92
2019-03-03T18:01:22.716Z,97279.58
2019-03-03T18:03:53.047Z,97274.61
2019-03-03T18:06:23.283Z,97289.01
2019-03-03T18:08:53.826Z,97275.59
2019-03-03T18:11:24.240Z,97271.80
2019-03-03T18:13:54.570Z,97264.30
2019-03-03T18:16:24.855Z,97260.02
2019-03-03T18:18:55.100Z,97241.84
2019-03-03T18:21:25.543Z,97241.00
2019-03-03T18:23:57.101Z,97227.34
2019-03-03T18:26:27.596Z,97225.84
2019-03-03T18:28:58.102Z,97218.98
2019-03-03T18:31:28.812Z,97215.41
2019-03-03T18:33:59.237Z,97204.66
2019-03-03T18:36:30.216Z,97205.42
2019-03-03T18:39:00.398Z,97212.53
2019-03-03T18:41:30.558Z,97202.86
2019-03-03T18:44:00.770Z,97205.58
2019-03-03T18:46:31.089Z,97205.56
2019-03-03T18:49:01.540Z,97200.83
2019-03-03T18:51:32.072Z,97185.95
2019-03-03T18:54:02.509Z,97186.69
2019-03-03T18:56:33.167Z,97187.55
2019-03-03T18:59:03.517Z,97187.70
2019-03-03T19:01:33.818Z,97183.66
2019-03-03T19:04:04.240Z,97195.63
2019-03-03T19:06:35.055Z,97193.02
2019-03-03T19:09:07.901Z,97186.58
2019-03-03T19:11:38.368Z,97174.13
2019-03-03T19:14:08.903Z,97179.55
2019-03-03T19:16:39.298Z,97175.73
2019-03-03T19:19:09.794Z,97166.23
2019-03-03T19:21:40.383Z,97165.67
2019-03-03T19:24:10.817Z,97174.69
2019-03-03T19:26:41.138Z,97164.11
2019-03-03T19:29:11.523Z,97164.72
2019-03-03T19:31:41.815Z,97170.84
2019-03-03T19:34:12.296Z,97168.14
2019-03-03T19:36:42.715Z,97162.11
2019-03-03T19:39:13.436Z,97147.00
2019-03-03T19:41:43.790Z,97145.59
2019-03-03T19:44:14.267Z,97140.75
2019-03-03T19:46:44.699Z,97130.13
2019-03-03T19:49:15.041Z,97126.47
2019-03-03T19:51:45.427Z,97122.95
2019-03-03T19:54:15.773Z,97113.33
2019-03-03T19:56:46.170Z,97110.91
2019-03-03T19:59:16.379Z,97107.17
2019-03-03T20:01:46.808Z,97111.16
2019-03-03T20:04:17.102Z,97111.91
2019-03-03T20:06:47.474Z,97108.73
2019-03-03T20:09:17.849Z,97094.40
2019-03-03T20:11:52.606Z,97098.11
2019-03-03T20:14:22.898Z,97093.59
2019-03-03T20:16:53.161Z,97098.09
2019-03-03T20:19:23.412Z,97089.62
2019-03-03T20:21:53.788Z,97089.98
2019-03-03T20:24:24.086Z,97087.28
2019-03-03T20:26:54.383Z,97089.50
2019-03-03T20:29:24.630Z,97090.62
2019-03-03T20:31:56.022Z,97084.73
2019-03-03T20:34:26.323Z,97088.48
2019-03-03T20:36:56.772Z,97083.13
2019-03-03T20:39:27.124Z,97081.00
2019-03-03T20:41:57.580Z,97082.43
2019-03-03T20:44:46.962Z,97076.58
2019-03-03T20:47:17.150Z,97075.99
2019-03-03T20:49:47.574Z,97061.83
2019-03-03T20:52:18.005Z,97058.89
2019-03-03T20:54:48.352Z,97053.02
2019-03-03T20:57:18.594Z,97055.43
2019-03-03T20:59:48.950Z,97054.34
2019-03-03T21:03:41.120Z,97046.30
2019-03-03T21:06:11.739Z,97057.16
2019-03-03T21:08:42.027Z,97063.81
2019-03-03T21:11:12.250Z,97051.30
2019-03-03T21:13:42.576Z,97048.19
2019-03-03T21:16:12.831Z,97043.88
2019-03-03T21:18:43.030Z,97027.86
2019-03-03T21:21:13.425Z,97022.23
2019-03-03T21:23:43.971Z,97009.52
2019-03-03T21:26:14.540Z,97005.48
2019-03-03T21:28:44.840Z,97008.42
2019-03-03T21:31:15.096Z,96994.54
2019-03-03T21:33:45.393Z,96982.67
2019-03-03T21:36:16.185Z,96970.92
2019-03-03T21:38:46.451Z,96970.92
2019-03-03T21:41:16.808Z,96964.84
2019-03-03T21:43:47.056Z,96957.44
2019-03-03T21:46:17.406Z,96948.88
2019-03-03T21:48:47.757Z,96940.59
2019-03-03T21:51:18.163Z,96933.11
2019-03-03T21:53:48.380Z,96938.73
2019-03-03T21:56:19.081Z,96933.88
2019-03-03T21:58:49.318Z,96931.14
2019-03-03T22:01:19.963Z,96932.70
2019-03-03T22:03:50.334Z,96934.19
2019-03-03T22:06:20.665Z,96941.15
2019-03-03T22:08:50.893Z,96931.16
2019-03-03T22:11:21.196Z,96927.27
2019-03-03T22:13:51.409Z,96923.09
2019-03-03T22:16:21.861Z,96921.32
2019-03-03T22:18:52.184Z,96921.36
2019-03-03T22:21:22.469Z,96909.40
2019-03-03T22:23:52.674Z,96889.99
2019-03-03T22:26:22.914Z,96890.02
2019-03-03T22:28:53.051Z,96890.02
2019-03-03T22:31:23.310Z,96878.30
2019-03-03T22:33:53.635Z,96882.02
2019-03-03T22:36:23.912Z,96868.20
2019-03-03T22:38:54.347Z,96866.59
2019-03-03T22:41:24.696Z,96862.60
2019-03-03T22:43:54.915Z,96867.37
2019-03-03T22:46:25.227Z,96863.06
2019-03-03T22:48:55.339Z,96858.33
2019-03-03T22:51:25.522Z,96824.47
2019-03-03T22:53:55.956Z,96833.50
2019-03-03T22:56:26.308Z,96828.97
2019-03-03T22:58:56.605Z,96812.20
2019-03-03T23:01:32.692Z,96816.67
2019-03-03T23:04:54.861Z,96809.97
2019-03-03T23:07:44.510Z,96804.85
2019-03-03T23:11:39.669Z,96801.89
2019-03-03T23:14:42.909Z,96794.64
2019-03-03T23:17:45.956Z,96790.16
2019-03-03T23:20:42.598Z,96783.77
2019-03-03T23:24:15.766Z,96776.84
2019-03-03T23:26:46.092Z,96768.59
2019-03-03T23:29:16.284Z,96763.09
2019-03-03T23:31:46.618Z,96768.11
2019-03-03T23:34:17.323Z,96766.20
2019-03-03T23:36:47.631Z,96763.55
2019-03-03T23:39:17.946Z,96758.52
2019-03-03T23:41:48.238Z,96762.72
2019-03-03T23:44:18.983Z,96767.48
2019-03-03T23:46:49.232Z,96782.74
2019-03-03T23:49:19.478Z,96782.97
2019-03-03T23:51:49.612Z,96775.70
2019-03-03T23:54:19.962Z,96780.50
2019-03-03T23:56:50.198Z,96778.07
2019-03-03T23:59:20.360Z,96762.93
